Messwerte Manicore

Temperatur

Temperatur
°C
1594368000 4.00 4.00
1594371600 5.00 5.00 22
1594375200 6.00 6.00 22
1594378800 7.00 7.00 24
1594382400 8.00 8.00 25
1594386000 9.00 9.00
1594389600 10.00 10.00
1594393200 11.00 11.00 31
1594396800 12.00 12.00 32
1594400400 13.00 13.00 32
1594404000 14.00 14.00 33
1594407600 15.00 15.00
1594411200 16.00 16.00
1594414800 17.00 17.00
1594418400 18.00 18.00 28
1594422000 19.00 19.00 27
1594425600 20.00 20.00
1594429200 21.00 21.00 26
1594432800 22.00 22.00
1594436400 23.00 23.00 25
1594440000 0.00 0.00 24
1594443600 1.00 1.00 23
1594447200 2.00 2.00 23
1594450800 3.00 3.00 23

Aktuellste Messwerte

Wettercharakter
Wetter: meist klar
Temperatur
23 °C
Feuchtigkeit
94 %
Wind
5 km/hWindrichtung: Nordost
Luftdruck
1012 hPa
Messzeit: 11. Juli 2020, 3.00Datenquelle: METAR

Weitere Messstationen in der Nähe

Messstation Temperatur Entfernung
Manaus 26 °C 331 km
Manaus 23 °C 331 km
Porto Velho 22 °C 437 km
Tefe - 465 km

Wind

Windrichtung Böen Mittelwind
° km/h km/h
1594368000 4.00 3.00 - 4.00
1594371600 5.00 4.00 - 5.00 50° 5
1594375200 6.00 5.00 - 6.00 0
1594378800 7.00 6.00 - 7.00 0
1594382400 8.00 7.00 - 8.00 0
1594386000 9.00 8.00 - 9.00
1594389600 10.00 9.00 - 10.00
1594393200 11.00 10.00 - 11.00 110° 10
1594396800 12.00 11.00 - 12.00 110° 10
1594400400 13.00 12.00 - 13.00 5
1594404000 14.00 13.00 - 14.00 50° 5
1594407600 15.00 14.00 - 15.00
1594411200 16.00 15.00 - 16.00
1594414800 17.00 16.00 - 17.00
1594418400 18.00 17.00 - 18.00 180° 5
1594422000 19.00 18.00 - 19.00 0
1594425600 20.00 19.00 - 20.00
1594429200 21.00 20.00 - 21.00 0
1594432800 22.00 21.00 - 22.00
1594436400 23.00 22.00 - 23.00 0
1594440000 0.00 23.00 - 0.00 0
1594443600 1.00 0.00 - 1.00 0
1594447200 2.00 1.00 - 2.00 0
1594450800 3.00 2.00 - 3.00 50° 5

Ihre Wetterstation

Fehlt Ihre Wetterstation auf unserem Portal?

Schreiben Sie an network@meteonews.ch